createdAt,value
2023-03-22T00:00:17.689Z,100369.52
2023-03-22T00:02:46.528Z,100370.13
2023-03-22T00:05:14.893Z,100370.25
2023-03-22T00:08:07.323Z,100368.38
2023-03-22T00:10:40.117Z,100368.39
2023-03-22T00:13:09.932Z,100368.04
2023-03-22T00:15:38.421Z,100374.09
2023-03-22T00:18:12.832Z,100374.27
2023-03-22T00:20:48.277Z,100372.20
2023-03-22T00:23:16.648Z,100368.57
2023-03-22T00:25:46.068Z,100368.90
2023-03-22T00:28:14.755Z,100369.95
2023-03-22T00:30:57.754Z,100369.99
2023-03-22T00:33:29.537Z,100369.13
2023-03-22T00:36:05.801Z,100366.32
2023-03-22T00:38:44.911Z,100367.35
2023-03-22T00:41:21.390Z,100366.01
2023-03-22T00:43:49.670Z,100365.15
2023-03-22T00:46:20.079Z,100364.56
2023-03-22T00:48:48.915Z,100361.50
2023-03-22T00:51:18.404Z,100364.02
2023-03-22T00:53:50.152Z,100367.11
2023-03-22T00:56:19.762Z,100364.41
2023-03-22T00:58:56.562Z,100365.23
2023-03-22T01:01:25.499Z,100366.04
2023-03-22T01:03:54.561Z,100368.46
2023-03-22T01:06:23.430Z,100371.02
2023-03-22T01:08:55.329Z,100374.08
2023-03-22T01:11:25.501Z,100373.17
2023-03-22T01:13:55.158Z,100372.25
2023-03-22T01:16:23.502Z,100373.92
2023-03-22T01:18:52.581Z,100372.59
2023-03-22T01:21:20.958Z,100376.09
2023-03-22T01:23:51.693Z,100377.53
2023-03-22T01:26:20.080Z,100379.69
2023-03-22T01:28:48.740Z,100379.56
2023-03-22T01:31:17.077Z,100379.50
2023-03-22T01:33:45.224Z,100379.41
2023-03-22T01:36:13.344Z,100382.33
2023-03-22T01:38:41.934Z,100387.70
2023-03-22T01:41:10.484Z,100391.95
2023-03-22T01:43:41.300Z,100392.20
2023-03-22T01:46:09.473Z,100391.03
2023-03-22T01:48:48.888Z,100395.27
2023-03-22T01:51:25.389Z,100396.46
2023-03-22T01:54:37.907Z,100396.24
2023-03-22T01:57:18.673Z,100395.11
2023-03-22T01:59:47.494Z,100394.23
2023-03-22T02:02:31.676Z,100396.42
2023-03-22T02:05:09.277Z,100397.39
2023-03-22T02:07:37.868Z,100399.98
2023-03-22T02:10:23.576Z,100404.04
2023-03-22T02:13:29.114Z,100405.73
2023-03-22T02:16:32.305Z,100405.77
2023-03-22T02:19:11.321Z,100408.96
2023-03-22T02:22:12.120Z,100411.08
2023-03-22T02:25:18.749Z,100413.90
2023-03-22T02:28:02.656Z,100415.85
2023-03-22T02:30:34.045Z,100415.74
2023-03-22T02:33:28.021Z,100417.15
2023-03-22T02:36:12.139Z,100421.34
2023-03-22T02:38:59.870Z,100421.45
2023-03-22T02:41:35.296Z,100422.36
2023-03-22T02:44:28.083Z,100420.06
2023-03-22T02:47:21.443Z,100419.59
2023-03-22T02:49:54.655Z,100415.21
2023-03-22T02:52:35.324Z,100417.91
2023-03-22T02:55:34.559Z,100419.15
2023-03-22T02:58:09.562Z,100423.15
2023-03-22T03:00:39.249Z,100424.23
2023-03-22T03:03:11.620Z,100425.63
2023-03-22T03:05:43.098Z,100430.27
2023-03-22T03:08:11.801Z,100434.23
2023-03-22T03:10:41.255Z,100436.54
2023-03-22T03:13:14.552Z,100443.20
2023-03-22T03:15:44.034Z,100439.81
2023-03-22T03:18:45.448Z,100446.15
2023-03-22T03:21:30.388Z,100450.29
2023-03-22T03:24:20.397Z,100452.30
2023-03-22T03:26:58.712Z,100460.21
2023-03-22T03:29:41.220Z,100463.25
2023-03-22T03:32:12.708Z,100460.89
2023-03-22T03:34:52.736Z,100460.94
2023-03-22T03:37:31.086Z,100465.13
2023-03-22T03:40:11.373Z,100467.16
2023-03-22T03:42:43.747Z,100467.52
2023-03-22T03:46:25.064Z,100470.63
2023-03-22T04:01:23.716Z,100472.41
2023-03-22T04:04:09.736Z,100467.87
2023-03-22T04:06:56.113Z,100467.06
2023-03-22T04:09:28.240Z,100468.21
2023-03-22T04:12:03.721Z,100471.99
2023-03-22T04:14:32.218Z,100478.41
2023-03-22T04:17:01.325Z,100478.90
2023-03-22T04:19:30.735Z,100479.92
2023-03-22T04:21:57.659Z,100481.18
2023-03-22T04:24:24.543Z,100481.70
2023-03-22T04:26:52.823Z,100483.62
2023-03-22T04:29:31.580Z,100483.02
2023-03-22T04:32:06.519Z,100480.99
2023-03-22T04:34:40.018Z,100479.91
2023-03-22T04:37:13.271Z,100483.41
2023-03-22T04:39:53.934Z,100475.42
2023-03-22T04:42:58.256Z,100477.68
2023-03-22T04:45:45.681Z,100480.23
2023-03-22T04:48:14.989Z,100489.53
2023-03-22T04:50:42.343Z,100494.89
2023-03-22T04:53:11.843Z,100499.77
2023-03-22T04:55:39.000Z,100502.94
2023-03-22T04:58:05.983Z,100504.52
2023-03-22T05:00:32.784Z,100508.86
2023-03-22T05:03:03.654Z,100509.00
2023-03-22T05:05:34.259Z,100508.54
2023-03-22T05:08:01.815Z,100511.77
2023-03-22T05:10:29.988Z,100514.27
2023-03-22T05:12:57.518Z,100512.95
2023-03-22T05:15:31.967Z,100515.10
2023-03-22T05:17:58.952Z,100519.53
2023-03-22T05:20:26.462Z,100520.64
2023-03-22T05:23:24.444Z,100524.75
2023-03-22T05:25:53.804Z,100526.00
2023-03-22T05:28:22.248Z,100527.17
2023-03-22T05:30:57.384Z,100527.15
2023-03-22T05:33:46.121Z,100526.00
2023-03-22T05:36:14.406Z,100522.01
2023-03-22T05:38:56.292Z,100522.17
2023-03-22T05:41:23.600Z,100520.74
2023-03-22T05:43:50.497Z,100519.46
2023-03-22T05:46:19.190Z,100519.21
2023-03-22T05:49:10.523Z,100526.19
2023-03-22T05:51:42.059Z,100528.64
2023-03-22T05:54:09.846Z,100530.88
2023-03-22T05:56:40.951Z,100538.91
2023-03-22T05:59:13.047Z,100548.84
2023-03-22T06:01:43.909Z,100558.70
2023-03-22T06:04:20.441Z,100562.16
2023-03-22T06:07:08.619Z,100566.03
2023-03-22T06:09:44.449Z,100559.80
2023-03-22T06:12:15.721Z,100551.45
2023-03-22T06:14:44.255Z,100554.30
2023-03-22T06:17:42.522Z,100571.34
2023-03-22T06:20:12.592Z,100579.23
2023-03-22T06:22:41.642Z,100585.33
2023-03-22T06:25:09.620Z,100581.80
2023-03-22T06:27:40.266Z,100579.52
2023-03-22T06:30:08.025Z,100580.58
2023-03-22T06:32:46.852Z,100584.09
2023-03-22T06:35:14.716Z,100581.94
2023-03-22T06:37:42.172Z,100583.82
2023-03-22T06:40:11.695Z,100588.73
2023-03-22T06:42:39.553Z,100588.00
2023-03-22T06:45:10.076Z,100588.19
2023-03-22T06:47:38.655Z,100588.65
2023-03-22T06:50:06.112Z,100589.55
2023-03-22T06:53:00.195Z,100591.66
2023-03-22T06:55:27.141Z,100586.25
2023-03-22T06:57:55.211Z,100583.64
2023-03-22T07:00:22.876Z,100580.98
2023-03-22T07:02:52.573Z,100583.32
2023-03-22T07:05:27.753Z,100583.44
2023-03-22T07:07:55.184Z,100582.17
2023-03-22T07:10:23.765Z,100583.77
2023-03-22T07:12:51.022Z,100587.78
2023-03-22T07:15:19.603Z,100588.02
2023-03-22T07:18:02.013Z,100587.43
2023-03-22T07:20:32.428Z,100589.35
2023-03-22T07:22:59.127Z,100592.29
2023-03-22T07:25:27.971Z,100595.58
2023-03-22T07:28:02.839Z,100598.71
2023-03-22T07:30:37.039Z,100602.17
2023-03-22T07:33:05.604Z,100600.69
2023-03-22T07:35:32.516Z,100601.63
2023-03-22T07:38:00.418Z,100604.30
2023-03-22T07:40:30.627Z,100605.90
2023-03-22T07:43:01.184Z,100608.54
2023-03-22T07:46:00.882Z,100603.20
2023-03-22T07:48:55.273Z,100599.50
2023-03-22T07:51:41.612Z,100601.54
2023-03-22T07:54:08.826Z,100603.17
2023-03-22T07:56:35.932Z,100603.17
2023-03-22T07:59:03.573Z,100607.95
2023-03-22T08:01:30.780Z,100608.98
2023-03-22T08:04:07.671Z,100606.95
2023-03-22T08:06:50.831Z,100604.06
2023-03-22T08:09:17.846Z,100601.89
2023-03-22T08:11:45.174Z,100606.98
2023-03-22T08:14:13.175Z,100609.23
2023-03-22T08:16:41.079Z,100609.99
2023-03-22T08:19:08.082Z,100615.77
2023-03-22T08:21:36.884Z,100613.34
2023-03-22T08:24:04.548Z,100612.17
2023-03-22T08:26:35.430Z,100614.12
2023-03-22T08:29:09.928Z,100617.26
2023-03-22T08:31:37.779Z,100615.94
2023-03-22T08:34:05.321Z,100611.74
2023-03-22T08:36:32.879Z,100613.36
2023-03-22T08:39:03.411Z,100613.49
2023-03-22T08:41:52.585Z,100615.53
2023-03-22T08:44:19.546Z,100615.90
2023-03-22T08:46:46.319Z,100614.91
2023-03-22T08:49:14.541Z,100619.20
2023-03-22T08:51:47.116Z,100618.27
2023-03-22T08:54:22.374Z,100614.71
2023-03-22T08:56:52.479Z,100618.92
2023-03-22T08:59:31.334Z,100618.40
2023-03-22T09:02:11.846Z,100615.33
2023-03-22T09:04:40.145Z,100618.84
2023-03-22T09:07:08.426Z,100618.13
2023-03-22T09:09:36.182Z,100616.20
2023-03-22T09:12:04.656Z,100616.78
2023-03-22T09:14:34.786Z,100616.55
2023-03-22T09:17:04.090Z,100617.05
2023-03-22T09:19:32.170Z,100620.95
2023-03-22T09:21:59.206Z,100620.33
2023-03-22T09:24:41.559Z,100622.98
2023-03-22T09:27:08.660Z,100624.62
2023-03-22T09:29:35.711Z,100621.02
2023-03-22T09:32:06.134Z,100622.48
2023-03-22T09:34:34.421Z,100619.14
2023-03-22T09:37:05.759Z,100619.95
2023-03-22T09:39:44.002Z,100621.02
2023-03-22T09:42:25.686Z,100621.74
2023-03-22T09:44:54.962Z,100620.78
2023-03-22T09:47:44.232Z,100618.50
2023-03-22T09:50:23.585Z,100619.92
2023-03-22T09:52:50.854Z,100616.76
2023-03-22T09:55:20.585Z,100619.79
2023-03-22T09:57:58.000Z,100621.26
2023-03-22T10:00:33.000Z,100622.42
2023-03-22T10:03:16.698Z,100616.89
2023-03-22T10:06:08.569Z,100613.95
2023-03-22T10:08:37.113Z,100613.14
2023-03-22T10:11:13.891Z,100615.14
2023-03-22T10:13:44.682Z,100611.99
2023-03-22T10:16:18.779Z,100610.30
2023-03-22T10:18:47.792Z,100612.80
2023-03-22T10:21:15.338Z,100609.91
2023-03-22T10:24:03.906Z,100606.16
2023-03-22T10:26:36.631Z,100610.65
2023-03-22T10:29:24.867Z,100608.30
2023-03-22T10:31:52.089Z,100606.08
2023-03-22T10:34:19.883Z,100603.58
2023-03-22T10:36:49.492Z,100605.64
2023-03-22T10:39:31.747Z,100603.45
2023-03-22T10:42:00.741Z,100603.04
2023-03-22T10:44:28.556Z,100605.64
2023-03-22T10:46:59.320Z,100605.29
2023-03-22T10:49:31.869Z,100603.79
2023-03-22T10:52:02.536Z,100604.30
2023-03-22T10:54:30.677Z,100601.89
2023-03-22T10:56:57.730Z,100603.66
2023-03-22T10:59:47.449Z,100603.58
2023-03-22T11:02:17.954Z,100602.74
2023-03-22T11:04:52.780Z,100600.62
2023-03-22T11:07:36.583Z,100598.57
2023-03-22T11:10:03.862Z,100594.06
2023-03-22T11:12:40.635Z,100594.59
2023-03-22T11:15:39.066Z,100587.36
2023-03-22T11:18:08.474Z,100585.89
2023-03-22T11:20:35.404Z,100584.30
2023-03-22T11:23:04.372Z,100581.44
2023-03-22T11:25:33.097Z,100577.34
2023-03-22T11:28:04.065Z,100571.14
2023-03-22T11:30:32.266Z,100569.95
2023-03-22T11:33:06.511Z,100568.50
2023-03-22T11:35:35.694Z,100570.86
2023-03-22T11:38:03.246Z,100571.73
2023-03-22T11:40:33.939Z,100565.92
2023-03-22T11:43:10.135Z,100569.42
2023-03-22T11:45:45.090Z,100563.55
2023-03-22T11:48:17.139Z,100563.14
2023-03-22T11:50:44.637Z,100558.89
2023-03-22T11:53:19.341Z,100557.77
2023-03-22T11:55:47.097Z,100558.89
2023-03-22T11:58:28.342Z,100559.22
2023-03-22T12:00:58.078Z,100554.55
2023-03-22T12:03:27.584Z,100554.42
2023-03-22T12:06:03.935Z,100557.40
2023-03-22T12:08:44.375Z,100553.85
2023-03-22T12:11:15.445Z,100556.08
2023-03-22T12:13:46.005Z,100555.31
2023-03-22T12:16:15.199Z,100549.52
2023-03-22T12:18:48.238Z,100551.37
2023-03-22T12:21:16.035Z,100547.52
2023-03-22T12:23:43.037Z,100548.77
2023-03-22T12:26:21.244Z,100547.04
2023-03-22T12:29:07.652Z,100546.19
2023-03-22T12:31:52.771Z,100542.27
2023-03-22T12:34:23.218Z,100544.35
2023-03-22T12:36:54.572Z,100541.79
2023-03-22T12:39:34.915Z,100543.41
2023-03-22T12:42:16.522Z,100541.58
2023-03-22T12:44:46.468Z,100542.85
2023-03-22T12:48:16.303Z,100537.25
2023-03-22T12:50:47.679Z,100537.98
2023-03-22T12:53:15.985Z,100537.69
2023-03-22T12:55:43.362Z,100538.02
2023-03-22T12:58:12.754Z,100538.55
2023-03-22T13:01:20.440Z,100536.02
2023-03-22T13:03:51.491Z,100531.73
2023-03-22T13:06:54.981Z,100531.75
2023-03-22T13:09:27.742Z,100529.86
2023-03-22T13:12:17.944Z,100527.55
2023-03-22T13:14:52.224Z,100525.59
2023-03-22T13:17:22.676Z,100524.91
2023-03-22T13:20:06.501Z,100522.20
2023-03-22T13:22:37.154Z,100522.55
2023-03-22T13:25:07.888Z,100521.66
2023-03-22T13:27:53.471Z,100523.48
2023-03-22T13:30:24.613Z,100520.35
2023-03-22T13:33:08.100Z,100522.16
2023-03-22T13:35:53.406Z,100518.90
2023-03-22T13:38:21.908Z,100516.39
2023-03-22T13:41:06.920Z,100512.73
2023-03-22T13:43:44.579Z,100515.89
2023-03-22T13:46:12.793Z,100516.33
2023-03-22T13:48:46.172Z,100517.70
2023-03-22T13:51:26.299Z,100515.77
2023-03-22T13:53:56.418Z,100518.40
2023-03-22T13:56:56.640Z,100521.58
2023-03-22T13:59:26.907Z,100521.73
2023-03-22T14:01:56.277Z,100517.33
2023-03-22T14:04:37.192Z,100516.60
2023-03-22T14:07:28.565Z,100518.14
2023-03-22T14:09:59.916Z,100517.30
2023-03-22T14:12:44.061Z,100517.16
2023-03-22T14:15:20.557Z,100517.38
2023-03-22T14:17:50.865Z,100507.95
2023-03-22T14:20:22.573Z,100500.80
